createdAt,value
2018-07-23T00:01:27.631Z,45.63
2018-07-23T00:03:56.607Z,52.17
2018-07-23T00:06:25.193Z,50.07
2018-07-23T00:08:53.787Z,44.20
2018-07-23T00:11:22.719Z,56.37
2018-07-23T00:13:51.308Z,44.47
2018-07-23T00:16:19.864Z,50.63
2018-07-23T00:18:48.457Z,59.57
2018-07-23T00:21:17.038Z,50.10
2018-07-23T00:23:45.622Z,44.80
2018-07-23T00:26:14.553Z,52.70
2018-07-23T00:28:43.119Z,48.47
2018-07-23T00:31:11.704Z,52.17
2018-07-23T00:33:40.423Z,57.13
2018-07-23T00:36:09.007Z,58.53
2018-07-23T00:38:37.572Z,50.77
2018-07-23T00:41:06.432Z,58.03
2018-07-23T00:43:35.256Z,69.03
2018-07-23T00:46:03.889Z,57.23
2018-07-23T00:48:32.606Z,48.50
2018-07-23T00:51:01.188Z,44.00
2018-07-23T00:53:29.724Z,52.10
2018-07-23T00:55:58.723Z,43.40
2018-07-23T00:58:27.551Z,59.13
2018-07-23T01:00:56.119Z,59.33
2018-07-23T01:03:24.847Z,63.00
2018-07-23T01:05:53.424Z,51.97
2018-07-23T01:08:21.999Z,53.70
2018-07-23T01:10:51.202Z,58.53
2018-07-23T01:13:20.235Z,49.77
2018-07-23T01:15:48.787Z,51.93
2018-07-23T01:18:17.357Z,52.90
2018-07-23T01:20:45.935Z,70.33
2018-07-23T01:23:14.491Z,51.93
2018-07-23T01:25:43.405Z,50.47
2018-07-23T01:28:11.984Z,49.67
2018-07-23T01:30:40.629Z,49.40
2018-07-23T01:33:09.528Z,45.10
2018-07-23T01:35:38.357Z,45.20
2018-07-23T01:38:07.117Z,49.27
2018-07-23T01:40:35.801Z,49.43
2018-07-23T01:43:04.379Z,54.17
2018-07-23T01:45:32.952Z,56.37
2018-07-23T01:48:01.638Z,53.50
2018-07-23T01:50:30.480Z,55.53
2018-07-23T01:52:59.013Z,52.67
2018-07-23T01:55:27.740Z,49.00
2018-07-23T01:57:56.328Z,49.77
2018-07-23T02:00:24.890Z,45.50
2018-07-23T02:02:53.903Z,49.07
2018-07-23T02:05:22.491Z,59.60
2018-07-23T02:07:51.080Z,48.63
2018-07-23T02:10:19.764Z,49.30
2018-07-23T02:12:48.339Z,50.87
2018-07-23T02:15:16.871Z,62.87
2018-07-23T02:17:45.583Z,54.90
2018-07-23T02:20:14.135Z,52.10
2018-07-23T02:22:42.724Z,51.77
2018-07-23T02:25:11.445Z,53.30
2018-07-23T02:27:40.009Z,48.30
2018-07-23T02:30:08.609Z,42.63
2018-07-23T02:32:37.327Z,48.87
2018-07-23T02:35:06.204Z,44.47
2018-07-23T02:37:34.772Z,52.50
2018-07-23T02:40:03.496Z,50.40
2018-07-23T02:42:32.048Z,45.03
2018-07-23T02:45:00.765Z,42.43
2018-07-23T02:47:29.399Z,49.77
2018-07-23T02:49:57.959Z,46.30
2018-07-23T02:52:29.569Z,36.77
2018-07-23T02:54:58.232Z,46.80
2018-07-23T02:57:26.784Z,48.70
2018-07-23T02:59:55.788Z,43.03
2018-07-23T03:02:25.084Z,55.40
2018-07-23T03:04:53.620Z,41.87
2018-07-23T03:07:22.304Z,41.83
2018-07-23T03:09:50.848Z,44.30
2018-07-23T03:12:19.387Z,39.53
2018-07-23T03:14:48.107Z,44.90
2018-07-23T03:17:16.663Z,41.73
2018-07-23T03:19:45.225Z,41.47
2018-07-23T03:22:13.881Z,46.67
2018-07-23T03:24:42.432Z,43.23
2018-07-23T03:27:10.973Z,46.60
2018-07-23T03:29:39.560Z,47.83
2018-07-23T03:32:08.169Z,47.40
2018-07-23T03:34:36.835Z,44.90
2018-07-23T03:37:05.411Z,47.33
2018-07-23T03:39:33.991Z,37.23
2018-07-23T03:42:02.599Z,47.10
2018-07-23T03:44:31.176Z,38.97
2018-07-23T03:46:59.838Z,46.87
2018-07-23T03:49:28.407Z,43.77
2018-07-23T03:51:57.300Z,43.53
2018-07-23T03:54:25.872Z,43.00
2018-07-23T03:56:54.464Z,41.03
2018-07-23T03:59:23.068Z,48.00
2018-07-23T04:01:51.656Z,41.53
2018-07-23T04:04:20.236Z,46.30
2018-07-23T04:06:49.556Z,56.33
2018-07-23T04:09:18.162Z,44.07
2018-07-23T04:11:46.772Z,51.67
2018-07-23T04:14:15.732Z,43.50
2018-07-23T04:16:44.318Z,43.70
2018-07-23T04:19:12.913Z,42.13
2018-07-23T04:21:41.495Z,48.13
2018-07-23T04:24:10.032Z,50.23
2018-07-23T04:26:38.579Z,56.43
2018-07-23T04:29:07.204Z,53.60
2018-07-23T04:31:35.851Z,62.77
2018-07-23T04:34:04.460Z,46.77
2018-07-23T04:36:33.139Z,50.83
2018-07-23T04:39:01.704Z,54.50
2018-07-23T04:41:30.275Z,47.70
2018-07-23T04:43:58.955Z,54.53
2018-07-23T04:46:27.520Z,51.43
2018-07-23T04:48:56.195Z,42.40
2018-07-23T04:51:25.056Z,43.00
2018-07-23T04:53:53.621Z,42.53
2018-07-23T04:56:22.159Z,46.70
2018-07-23T04:58:50.807Z,50.63
2018-07-23T05:01:19.360Z,46.57
2018-07-23T05:03:47.928Z,42.63
2018-07-23T05:06:16.803Z,51.60
2018-07-23T05:08:45.430Z,49.23
2018-07-23T05:11:13.987Z,47.77
2018-07-23T05:13:42.700Z,48.00
2018-07-23T05:16:11.262Z,51.13
2018-07-23T05:18:39.825Z,47.37
2018-07-23T05:21:08.778Z,47.43
2018-07-23T05:23:37.428Z,65.87
2018-07-23T05:26:06.380Z,47.17
2018-07-23T05:28:34.988Z,41.93
2018-07-23T05:31:03.535Z,46.87
2018-07-23T05:33:32.108Z,42.97
2018-07-23T05:36:00.796Z,37.97
2018-07-23T05:38:29.433Z,48.63
2018-07-23T05:40:58.004Z,46.63
2018-07-23T05:43:26.640Z,47.27
2018-07-23T05:45:55.237Z,44.53
2018-07-23T05:48:24.337Z,49.63
2018-07-23T05:50:53.079Z,45.07
2018-07-23T05:53:21.631Z,49.30
2018-07-23T05:55:50.175Z,46.53
2018-07-23T05:58:19.084Z,62.13
2018-07-23T06:00:48.583Z,45.80
2018-07-23T06:03:17.189Z,50.67
2018-07-23T06:05:45.824Z,42.77
2018-07-23T06:08:14.391Z,46.63
2018-07-23T06:10:43.778Z,47.90
2018-07-23T06:13:12.577Z,48.57
2018-07-23T06:15:41.131Z,44.17
2018-07-23T06:18:09.819Z,39.90
2018-07-23T06:20:38.794Z,46.93
2018-07-23T06:23:08.825Z,44.17
2018-07-23T06:25:39.745Z,45.63
2018-07-23T06:28:09.668Z,40.57
2018-07-23T06:30:39.509Z,50.37
2018-07-23T06:33:09.360Z,43.63
2018-07-23T06:35:39.351Z,45.10
2018-07-23T06:38:08.640Z,43.80
2018-07-23T06:40:38.045Z,48.00
2018-07-23T06:43:07.203Z,44.00
2018-07-23T06:45:35.892Z,42.33
2018-07-23T06:48:04.608Z,40.30
2018-07-23T06:50:34.596Z,41.07
2018-07-23T06:53:05.223Z,44.57
2018-07-23T06:55:34.968Z,42.50
2018-07-23T06:58:05.061Z,42.10
2018-07-23T07:00:34.101Z,35.50
2018-07-23T07:03:08.396Z,40.47
2018-07-23T07:05:38.357Z,43.80
2018-07-23T07:08:07.468Z,34.77
2018-07-23T07:10:36.951Z,38.17
2018-07-23T07:13:09.334Z,38.27
2018-07-23T07:15:41.084Z,35.63
2018-07-23T07:18:11.064Z,40.30
2018-07-23T07:20:39.934Z,38.77
2018-07-23T07:23:08.597Z,40.33
2018-07-23T07:25:37.156Z,38.50
2018-07-23T07:28:07.096Z,39.63
2018-07-23T07:30:35.872Z,39.57
2018-07-23T07:33:07.240Z,39.97
2018-07-23T07:35:37.195Z,37.40
2018-07-23T07:38:05.851Z,40.57
2018-07-23T07:40:34.423Z,39.30
2018-07-23T07:43:03.147Z,39.50
2018-07-23T07:45:33.633Z,36.33
2018-07-23T07:48:02.370Z,40.23
2018-07-23T07:50:30.960Z,43.73
2018-07-23T07:52:59.529Z,46.00
2018-07-23T07:55:28.382Z,39.97
2018-07-23T07:57:57.096Z,34.80
2018-07-23T08:00:27.868Z,30.47
2018-07-23T08:02:58.488Z,34.10
2018-07-23T08:05:27.203Z,29.37
2018-07-23T08:07:55.835Z,38.00
2018-07-23T08:10:24.399Z,33.80
2018-07-23T08:12:53.200Z,28.87
2018-07-23T08:15:24.251Z,31.27
2018-07-23T08:17:52.960Z,30.30
2018-07-23T08:20:21.576Z,33.00
2018-07-23T08:22:51.257Z,31.93
2018-07-23T08:25:19.835Z,33.17
2018-07-23T08:27:50.494Z,36.90
2018-07-23T08:30:19.216Z,30.60
2018-07-23T08:32:47.804Z,32.43
2018-07-23T08:35:17.500Z,33.17
2018-07-23T08:37:47.700Z,31.40
2018-07-23T08:40:16.245Z,35.20
2018-07-23T08:42:45.068Z,29.20
2018-07-23T08:45:13.812Z,36.67
2018-07-23T08:47:42.373Z,31.90
2018-07-23T08:50:12.730Z,30.60
2018-07-23T08:52:43.708Z,28.80
2018-07-23T08:55:12.408Z,34.10
2018-07-23T08:57:41.028Z,33.60
2018-07-23T09:00:10.236Z,32.10
2018-07-23T09:02:46.097Z,34.77
2018-07-23T09:05:15.163Z,33.90
2018-07-23T09:07:51.288Z,32.47
2018-07-23T09:10:25.648Z,33.10
2018-07-23T09:12:57.013Z,39.10
2018-07-23T09:15:26.088Z,30.93
2018-07-23T09:17:55.196Z,34.27
2018-07-23T09:20:25.587Z,29.73
2018-07-23T09:22:54.143Z,33.93
2018-07-23T09:25:22.835Z,26.40
2018-07-23T09:27:51.557Z,29.73
2018-07-23T09:30:55.972Z,28.70
2018-07-23T09:33:25.428Z,25.37
2018-07-23T09:35:54.591Z,25.43
2018-07-23T09:38:23.698Z,25.83
2018-07-23T09:40:52.999Z,22.60
2018-07-23T09:43:21.597Z,22.70
2018-07-23T09:45:50.127Z,22.33
2018-07-23T09:48:18.835Z,22.67
2018-07-23T09:50:48.276Z,25.40
2018-07-23T09:53:17.074Z,23.37
2018-07-23T09:55:45.741Z,19.77
2018-07-23T09:58:14.307Z,23.03
2018-07-23T10:00:48.379Z,21.50
2018-07-23T10:03:17.950Z,22.83
2018-07-23T10:05:46.403Z,23.17
2018-07-23T10:08:15.018Z,28.57
2018-07-23T10:10:43.583Z,28.23
2018-07-23T10:13:12.155Z,29.67
2018-07-23T10:15:40.863Z,27.13
2018-07-23T10:18:09.472Z,26.10
2018-07-23T10:20:38.074Z,22.47
2018-07-23T10:23:06.791Z,26.73
2018-07-23T10:25:35.488Z,27.37
2018-07-23T10:28:04.079Z,22.30
2018-07-23T10:30:32.999Z,24.37
2018-07-23T10:33:01.580Z,21.17
2018-07-23T10:35:30.133Z,24.83
2018-07-23T10:37:58.883Z,20.00
2018-07-23T10:40:27.427Z,22.43
2018-07-23T10:42:55.973Z,22.70
2018-07-23T10:45:24.876Z,19.37
2018-07-23T10:47:58.669Z,19.53
2018-07-23T10:50:27.399Z,20.93
2018-07-23T10:52:56.085Z,17.30
2018-07-23T10:55:24.647Z,17.23
2018-07-23T10:57:53.377Z,16.20
2018-07-23T11:00:21.968Z,17.53
2018-07-23T11:02:50.567Z,18.37
2018-07-23T11:05:19.316Z,16.33
2018-07-23T11:07:48.008Z,16.77
2018-07-23T11:10:16.635Z,15.63
2018-07-23T11:12:45.483Z,14.70
2018-07-23T11:15:14.096Z,14.53
2018-07-23T11:17:42.682Z,11.85
2018-07-23T11:20:12.476Z,15.08
2018-07-23T11:22:41.736Z,11.80
2018-07-23T11:25:38.810Z,11.88
2018-07-23T11:27:38.988Z,13.65
2018-07-23T11:30:07.895Z,12.58
2018-07-23T11:32:36.899Z,12.88
2018-07-23T11:35:05.712Z,13.20
2018-07-23T11:37:34.506Z,12.82
2018-07-23T11:40:03.075Z,12.25
2018-07-23T11:42:31.969Z,12.10
2018-07-23T11:45:00.640Z,13.32
2018-07-23T11:47:29.303Z,10.58
2018-07-23T11:49:58.036Z,10.90
2018-07-23T11:52:26.635Z,15.63
2018-07-23T11:54:55.184Z,15.30
2018-07-23T11:57:23.760Z,9.18
2018-07-23T11:59:52.335Z,8.38
2018-07-23T12:02:20.988Z,8.85
2018-07-23T12:04:49.684Z,10.68
2018-07-23T12:07:18.236Z,9.88
2018-07-23T12:09:46.917Z,12.28
2018-07-23T12:12:15.514Z,17.37
2018-07-23T12:14:44.060Z,11.20
2018-07-23T12:17:12.767Z,11.70
2018-07-23T12:19:41.438Z,10.75
2018-07-23T12:22:10.005Z,12.20
2018-07-23T12:24:38.576Z,11.60
2018-07-23T12:27:07.195Z,17.73
2018-07-23T12:29:35.747Z,13.97
2018-07-23T12:32:04.300Z,14.20
2018-07-23T12:34:33.040Z,10.97
2018-07-23T12:37:01.589Z,12.50
2018-07-23T12:39:30.239Z,11.53
2018-07-23T12:41:58.923Z,9.33
2018-07-23T12:44:27.456Z,10.75
2018-07-23T12:46:56.108Z,10.40
2018-07-23T12:49:24.693Z,11.43
2018-07-23T12:51:53.226Z,10.85
2018-07-23T12:54:22.144Z,11.90
2018-07-23T12:56:50.832Z,11.95
2018-07-23T12:59:19.524Z,12.82
2018-07-23T13:01:48.083Z,13.03
2018-07-23T13:04:16.794Z,11.80
2018-07-23T13:06:45.464Z,12.18
2018-07-23T13:09:14.141Z,13.60
2018-07-23T13:11:42.728Z,10.20
2018-07-23T13:14:11.279Z,12.95
2018-07-23T13:16:39.815Z,15.68
2018-07-23T13:19:08.504Z,10.65
2018-07-23T13:21:37.077Z,14.23
2018-07-23T13:24:05.864Z,11.17
2018-07-23T13:26:34.792Z,13.13
2018-07-23T13:29:03.506Z,12.33
2018-07-23T13:31:32.269Z,12.13
2018-07-23T13:34:00.878Z,14.83
2018-07-23T13:36:29.439Z,10.97
2018-07-23T13:38:58.007Z,20.83
2018-07-23T13:41:26.761Z,12.90
2018-07-23T13:43:55.337Z,13.73
2018-07-23T13:46:23.942Z,14.40
2018-07-23T13:48:52.520Z,11.47
2018-07-23T13:51:21.055Z,11.90
2018-07-23T13:53:49.615Z,11.30
2018-07-23T13:56:18.200Z,17.73
2018-07-23T13:58:46.761Z,17.53
2018-07-23T14:01:15.354Z,15.33
2018-07-23T14:03:43.937Z,11.93
2018-07-23T14:06:12.623Z,16.90
2018-07-23T14:08:41.188Z,10.23
2018-07-23T14:11:09.819Z,13.37
2018-07-23T14:13:38.380Z,13.70
2018-07-23T14:16:06.978Z,19.73
2018-07-23T14:18:35.584Z,14.40
2018-07-23T14:21:04.176Z,13.13
2018-07-23T14:23:32.943Z,13.47
2018-07-23T14:26:01.664Z,10.37
2018-07-23T14:28:30.254Z,14.37
2018-07-23T14:30:58.805Z,13.10
2018-07-23T14:33:27.387Z,13.83
2018-07-23T14:35:55.976Z,19.80
2018-07-23T14:38:24.755Z,15.67
2018-07-23T14:40:53.465Z,22.97
2018-07-23T14:43:22.057Z,13.40
2018-07-23T14:45:51.089Z,20.23
2018-07-23T14:48:20.151Z,15.47
2018-07-23T14:50:48.708Z,13.97
2018-07-23T14:53:17.295Z,13.47
2018-07-23T14:55:46.237Z,15.97
2018-07-23T14:58:14.780Z,18.17
2018-07-23T15:00:43.371Z,16.53
2018-07-23T15:24:11.752Z,15.57
2018-07-23T15:26:40.457Z,15.77
2018-07-23T15:29:09.260Z,19.60
2018-07-23T15:31:38.223Z,16.20
2018-07-23T15:34:07.363Z,18.80
2018-07-23T15:36:36.308Z,30.30
2018-07-23T15:39:07.739Z,22.87
2018-07-23T15:41:36.816Z,18.47
2018-07-23T15:44:05.739Z,14.43
2018-07-23T15:46:34.539Z,15.63
2018-07-23T15:49:04.031Z,17.53
2018-07-23T15:51:32.633Z,14.70
2018-07-23T15:54:01.508Z,23.27
2018-07-23T15:56:30.144Z,19.03
2018-07-23T15:58:59.068Z,15.83
2018-07-23T16:01:27.823Z,16.87
2018-07-23T16:03:56.507Z,17.20
2018-07-23T16:06:25.543Z,17.43
2018-07-23T16:08:54.434Z,16.63
2018-07-23T16:11:23.308Z,20.00
2018-07-23T16:13:52.340Z,22.17
2018-07-23T16:16:21.159Z,17.63
2018-07-23T16:18:50.229Z,14.37
2018-07-23T16:21:18.852Z,19.73
2018-07-23T16:23:47.857Z,18.67
2018-07-23T16:26:16.883Z,16.43
2018-07-23T16:28:45.615Z,21.43
2018-07-23T16:31:14.479Z,16.70
2018-07-23T16:33:43.125Z,16.97
2018-07-23T16:36:11.940Z,17.70
2018-07-23T16:38:41.135Z,19.50
2018-07-23T16:41:09.787Z,15.63
2018-07-23T16:43:39.203Z,14.93
2018-07-23T16:46:08.844Z,19.70
2018-07-23T16:48:37.519Z,20.27
2018-07-23T16:51:06.972Z,17.03
2018-07-23T16:53:35.716Z,19.83
2018-07-23T16:56:05.125Z,18.23
2018-07-23T16:58:35.076Z,18.30
2018-07-23T17:01:03.747Z,18.17
2018-07-23T17:03:32.342Z,15.27
2018-07-23T17:06:00.979Z,15.13
2018-07-23T17:08:29.717Z,18.73
2018-07-23T17:10:58.603Z,17.10
2018-07-23T17:13:27.745Z,21.67
2018-07-23T17:15:56.610Z,17.10
2018-07-23T17:18:25.546Z,18.03
2018-07-23T17:20:54.323Z,17.00
2018-07-23T17:23:23.072Z,15.70
2018-07-23T17:25:51.641Z,15.90
2018-07-23T17:28:20.291Z,17.03
2018-07-23T17:30:49.195Z,16.63
2018-07-23T17:33:17.868Z,16.10
2018-07-23T17:35:46.783Z,16.20
2018-07-23T17:38:15.952Z,18.33
2018-07-23T17:40:44.705Z,19.10
2018-07-23T17:43:13.477Z,16.43
2018-07-23T17:45:42.679Z,16.37
2018-07-23T17:48:11.535Z,14.80
2018-07-23T17:50:40.172Z,15.30
2018-07-23T17:53:08.784Z,19.23
2018-07-23T17:55:37.739Z,16.47
2018-07-23T17:58:06.928Z,16.23
2018-07-23T18:00:35.564Z,22.23
2018-07-23T18:03:04.444Z,15.70
2018-07-23T18:05:33.265Z,17.30
2018-07-23T18:08:01.816Z,17.17
2018-07-23T18:10:31.017Z,17.43
2018-07-23T18:12:59.793Z,19.77
2018-07-23T18:15:28.429Z,16.97
2018-07-23T18:17:57.117Z,15.23
2018-07-23T18:20:25.719Z,15.63
2018-07-23T18:22:54.720Z,17.20
2018-07-23T18:25:23.440Z,19.07
2018-07-23T18:27:52.161Z,16.57
2018-07-23T18:30:21.431Z,14.30
2018-07-23T18:32:50.048Z,17.40
2018-07-23T18:35:18.904Z,16.60
2018-07-23T18:37:47.594Z,17.97
2018-07-23T18:40:16.890Z,22.20
2018-07-23T18:42:46.572Z,14.93
2018-07-23T18:45:15.567Z,20.40
2018-07-23T18:47:44.725Z,17.30
2018-07-23T18:50:13.959Z,14.97
2018-07-23T18:52:42.772Z,15.43
2018-07-23T18:55:11.736Z,17.40
2018-07-23T18:57:40.416Z,19.07
2018-07-23T19:00:09.925Z,23.20
2018-07-23T19:02:39.152Z,16.10
2018-07-23T19:05:08.312Z,14.67
2018-07-23T19:07:38.343Z,17.27
2018-07-23T19:10:10.159Z,16.97
2018-07-23T19:12:39.319Z,18.23
2018-07-23T19:15:08.541Z,16.40
2018-07-23T19:17:38.407Z,16.43
2018-07-23T19:20:07.305Z,19.60
2018-07-23T19:22:36.115Z,18.03
2018-07-23T19:25:05.628Z,17.33
2018-07-23T19:27:34.590Z,19.80
2018-07-23T19:30:03.655Z,18.73
2018-07-23T19:32:32.900Z,20.57
2018-07-23T19:35:03.545Z,16.20
2018-07-23T19:37:32.178Z,21.43
2018-07-23T19:40:00.992Z,27.90
2018-07-23T19:42:29.701Z,25.23
2018-07-23T19:44:58.895Z,22.30
2018-07-23T19:47:28.100Z,22.00
2018-07-23T19:49:56.980Z,23.33
2018-07-23T19:52:26.036Z,26.00
2018-07-23T19:54:54.731Z,22.40
2018-07-23T19:57:23.607Z,19.47
2018-07-23T19:59:53.443Z,25.93
2018-07-23T20:02:22.707Z,24.70
2018-07-23T20:04:52.564Z,26.33
2018-07-23T20:07:22.540Z,21.63
2018-07-23T20:09:52.924Z,25.07
2018-07-23T20:12:23.024Z,30.33
2018-07-23T20:14:52.800Z,29.20
2018-07-23T20:17:22.382Z,25.87
2018-07-23T20:19:52.677Z,22.30
2018-07-23T20:22:21.808Z,26.97
2018-07-23T20:24:50.477Z,23.70
2018-07-23T20:27:19.751Z,26.40
2018-07-23T20:29:48.474Z,27.73
2018-07-23T20:32:17.144Z,35.83
2018-07-23T20:34:46.004Z,29.97
2018-07-23T20:37:14.648Z,22.33
2018-07-23T20:39:43.570Z,25.33
2018-07-23T20:42:12.693Z,24.37
2018-07-23T20:44:41.938Z,25.23
2018-07-23T20:47:10.496Z,26.20
2018-07-23T20:49:39.360Z,29.83
2018-07-23T20:52:08.008Z,27.87
2018-07-23T20:54:37.040Z,28.60
2018-07-23T20:57:06.569Z,31.43
2018-07-23T20:59:35.308Z,29.37
2018-07-23T21:02:04.407Z,31.63
2018-07-23T21:04:33.211Z,32.10
2018-07-23T21:07:01.855Z,31.87
2018-07-23T21:09:31.560Z,27.93
2018-07-23T21:12:00.178Z,28.73
2018-07-23T21:14:28.904Z,28.37
2018-07-23T21:16:57.579Z,34.17
2018-07-23T21:19:26.565Z,35.40
2018-07-23T21:21:55.428Z,37.13
2018-07-23T21:24:24.098Z,35.17
2018-07-23T21:26:53.204Z,32.03
2018-07-23T21:29:22.212Z,34.10
2018-07-23T21:31:51.027Z,30.73
2018-07-23T21:34:19.869Z,29.30
2018-07-23T21:36:48.548Z,31.23
2018-07-23T21:39:17.139Z,34.13
2018-07-23T21:41:46.075Z,36.37
2018-07-23T21:44:15.548Z,31.13
2018-07-23T21:46:44.216Z,31.43
2018-07-23T21:49:13.255Z,32.50
2018-07-23T21:51:42.043Z,33.70
2018-07-23T21:54:10.890Z,54.53
2018-07-23T21:56:39.703Z,35.53
2018-07-23T21:59:08.424Z,37.57
2018-07-23T22:01:37.119Z,35.73
2018-07-23T22:04:05.860Z,36.50
2018-07-23T22:06:34.511Z,34.57
2018-07-23T22:09:03.704Z,34.87
2018-07-23T22:11:32.469Z,36.13
2018-07-23T22:14:01.080Z,38.53
2018-07-23T22:16:29.894Z,39.53
2018-07-23T22:18:58.659Z,34.57
2018-07-23T22:21:27.324Z,51.43
2018-07-23T22:23:56.268Z,36.40
2018-07-23T22:26:25.412Z,46.93
2018-07-23T22:28:54.161Z,41.93
2018-07-23T22:31:22.942Z,36.67
2018-07-23T22:33:51.815Z,43.67
2018-07-23T22:36:20.544Z,37.60
2018-07-23T22:38:49.600Z,52.40
2018-07-23T22:41:18.320Z,38.30
2018-07-23T22:43:46.935Z,42.57
2018-07-23T22:46:15.533Z,40.53
2018-07-23T22:48:44.263Z,50.90
2018-07-23T22:51:13.211Z,49.83
2018-07-23T22:53:41.956Z,38.40
2018-07-23T22:56:10.696Z,37.57
2018-07-23T22:58:39.704Z,40.60
2018-07-23T23:01:08.399Z,41.50
2018-07-23T23:03:37.079Z,39.93
2018-07-23T23:06:05.748Z,34.93
2018-07-23T23:08:34.584Z,40.30
2018-07-23T23:11:03.343Z,47.77
2018-07-23T23:13:32.763Z,40.20
2018-07-23T23:16:01.398Z,42.93
2018-07-23T23:18:30.148Z,47.53
2018-07-23T23:20:58.902Z,41.23
2018-07-23T23:23:27.999Z,41.63
2018-07-23T23:25:57.288Z,42.23
2018-07-23T23:28:26.120Z,38.87
2018-07-23T23:30:54.883Z,53.27
2018-07-23T23:33:23.584Z,40.77
2018-07-23T23:35:52.491Z,39.00
2018-07-23T23:38:21.214Z,37.60
2018-07-23T23:40:49.939Z,42.83
2018-07-23T23:43:18.709Z,45.37
2018-07-23T23:45:47.438Z,39.03
2018-07-23T23:48:16.609Z,40.03
2018-07-23T23:50:45.568Z,48.30
2018-07-23T23:53:14.512Z,42.57
2018-07-23T23:55:43.600Z,40.60
2018-07-23T23:58:12.349Z,39.43
